sensor_id;sensor_type;location;lat;lon;timestamp;pressure;altitude;pressure_sealevel;temperature;humidity
9009;BME280;62813;51.424;6.762;2023-11-19T00:00:09;100636.00;;;9.16;100.00
9009;BME280;62813;51.424;6.762;2023-11-19T00:02:40;100642.06;;;9.21;100.00
9009;BME280;62813;51.424;6.762;2023-11-19T00:05:08;100658.69;;;9.27;100.00
9009;BME280;62813;51.424;6.762;2023-11-19T00:07:36;100654.47;;;9.26;100.00
9009;BME280;62813;51.424;6.762;2023-11-19T00:10:03;100660.50;;;9.26;100.00
9009;BME280;62813;51.424;6.762;2023-11-19T00:12:43;100662.88;;;9.28;100.00
9009;BME280;62813;51.424;6.762;2023-11-19T00:15:11;100669.75;;;9.34;100.00
9009;BME280;62813;51.424;6.762;2023-11-19T00:17:39;100667.34;;;9.27;100.00
9009;BME280;62813;51.424;6.762;2023-11-19T00:20:17;100658.41;;;9.28;100.00
9009;BME280;62813;51.424;6.762;2023-11-19T00:22:44;100661.94;;;9.44;100.00
9009;BME280;62813;51.424;6.762;2023-11-19T00:25:15;100656.16;;;9.47;100.00
9009;BME280;62813;51.424;6.762;2023-11-19T00:27:42;100657.25;;;9.56;100.00
9009;BME280;62813;51.424;6.762;2023-11-19T00:30:11;100654.91;;;9.65;100.00
9009;BME280;62813;51.424;6.762;2023-11-19T00:32:38;100645.97;;;9.71;100.00
9009;BME280;62813;51.424;6.762;2023-11-19T00:35:06;100647.31;;;9.78;100.00
9009;BME280;62813;51.424;6.762;2023-11-19T00:37:42;100632.63;;;9.82;100.00
9009;BME280;62813;51.424;6.762;2023-11-19T00:40:10;100633.16;;;9.90;100.00
9009;BME280;62813;51.424;6.762;2023-11-19T00:42:37;100627.94;;;10.00;100.00
9009;BME280;62813;51.424;6.762;2023-11-19T00:45:04;100637.94;;;10.03;100.00
9009;BME280;62813;51.424;6.762;2023-11-19T00:47:36;100622.94;;;10.13;100.00
9009;BME280;62813;51.424;6.762;2023-11-19T00:50:03;100625.38;;;10.20;100.00
9009;BME280;62813;51.424;6.762;2023-11-19T00:52:30;100619.03;;;10.21;100.00
9009;BME280;62813;51.424;6.762;2023-11-19T00:54:57;100625.38;;;10.25;100.00
9009;BME280;62813;51.424;6.762;2023-11-19T00:57:24;100618.00;;;10.27;100.00
9009;BME280;62813;51.424;6.762;2023-11-19T00:59:50;100614.06;;;10.19;100.00
9009;BME280;62813;51.424;6.762;2023-11-19T01:02:17;100615.13;;;10.34;100.00
9009;BME280;62813;51.424;6.762;2023-11-19T01:04:44;100598.53;;;10.33;100.00
9009;BME280;62813;51.424;6.762;2023-11-19T01:07:12;100599.81;;;10.31;100.00
9009;BME280;62813;51.424;6.762;2023-11-19T01:09:42;100600.09;;;10.34;100.00
9009;BME280;62813;51.424;6.762;2023-11-19T01:12:09;100610.91;;;10.33;100.00
9009;BME280;62813;51.424;6.762;2023-11-19T01:14:37;100600.63;;;10.31;100.00
9009;BME280;62813;51.424;6.762;2023-11-19T01:17:03;100603.25;;;10.41;100.00
9009;BME280;62813;51.424;6.762;2023-11-19T01:19:31;100602.75;;;10.44;100.00
9009;BME280;62813;51.424;6.762;2023-11-19T01:21:58;100612.75;;;10.42;100.00
9009;BME280;62813;51.424;6.762;2023-11-19T01:24:25;100614.06;;;10.55;100.00
9009;BME280;62813;51.424;6.762;2023-11-19T01:26:55;100617.50;;;10.40;100.00
9009;BME280;62813;51.424;6.762;2023-11-19T01:29:22;100611.16;;;10.46;100.00
9009;BME280;62813;51.424;6.762;2023-11-19T01:31:49;100621.47;;;10.53;100.00
9009;BME280;62813;51.424;6.762;2023-11-19T01:34:17;100618.81;;;10.63;100.00
9009;BME280;62813;51.424;6.762;2023-11-19T01:36:46;100629.09;;;10.54;100.00
9009;BME280;62813;51.424;6.762;2023-11-19T01:39:16;100631.44;;;10.56;100.00
9009;BME280;62813;51.424;6.762;2023-11-19T01:41:43;100619.31;;;10.55;100.00
9009;BME280;62813;51.424;6.762;2023-11-19T01:44:10;100621.97;;;10.60;100.00
9009;BME280;62813;51.424;6.762;2023-11-19T01:46:40;100614.34;;;10.58;100.00
9009;BME280;62813;51.424;6.762;2023-11-19T01:49:08;100604.84;;;10.57;100.00
9009;BME280;62813;51.424;6.762;2023-11-19T01:51:36;100614.88;;;10.50;100.00
9009;BME280;62813;51.424;6.762;2023-11-19T01:54:02;100614.06;;;10.55;100.00
9009;BME280;62813;51.424;6.762;2023-11-19T01:56:30;100606.94;;;10.55;100.00
9009;BME280;62813;51.424;6.762;2023-11-19T01:58:57;100608.56;;;10.61;100.00
9009;BME280;62813;51.424;6.762;2023-11-19T02:01:24;100605.09;;;10.56;100.00
9009;BME280;62813;51.424;6.762;2023-11-19T02:03:51;100598.00;;;10.56;100.00
9009;BME280;62813;51.424;6.762;2023-11-19T02:06:19;100586.13;;;10.69;100.00
9009;BME280;62813;51.424;6.762;2023-11-19T02:08:46;100568.22;;;10.71;100.00
9009;BME280;62813;51.424;6.762;2023-11-19T02:11:12;100576.38;;;10.70;100.00
9009;BME280;62813;51.424;6.762;2023-11-19T02:13:40;100560.28;;;10.81;100.00
9009;BME280;62813;51.424;6.762;2023-11-19T02:16:08;100557.41;;;10.73;100.00
9009;BME280;62813;51.424;6.762;2023-11-19T02:18:37;100551.06;;;10.74;100.00
9009;BME280;62813;51.424;6.762;2023-11-19T02:21:04;100565.84;;;10.80;100.00
9009;BME280;62813;51.424;6.762;2023-11-19T02:23:32;100557.91;;;10.75;100.00
9009;BME280;62813;51.424;6.762;2023-11-19T02:28:33;100555.00;;;10.86;100.00
9009;BME280;62813;51.424;6.762;2023-11-19T02:31:00;100553.69;;;10.84;100.00
9009;BME280;62813;51.424;6.762;2023-11-19T02:33:27;100551.59;;;10.86;100.00
9009;BME280;62813;51.424;6.762;2023-11-19T02:35:54;100552.91;;;10.83;100.00
9009;BME280;62813;51.424;6.762;2023-11-19T02:38:20;100549.72;;;10.81;100.00
9009;BME280;62813;51.424;6.762;2023-11-19T02:40:48;100548.94;;;10.81;100.00
9009;BME280;62813;51.424;6.762;2023-11-19T02:43:15;100547.06;;;10.91;100.00
9009;BME280;62813;51.424;6.762;2023-11-19T02:45:43;100542.34;;;10.93;100.00
9009;BME280;62813;51.424;6.762;2023-11-19T02:48:12;100542.34;;;10.83;100.00
9009;BME280;62813;51.424;6.762;2023-11-19T02:50:42;100539.69;;;11.04;100.00
9009;BME280;62813;51.424;6.762;2023-11-19T02:53:09;100534.13;;;11.05;100.00
9009;BME280;62813;51.424;6.762;2023-11-19T02:55:37;100548.13;;;11.00;100.00
9009;BME280;62813;51.424;6.762;2023-11-19T02:58:05;100531.22;;;11.07;100.00
9009;BME280;62813;51.424;6.762;2023-11-19T03:00:46;100534.38;;;11.09;100.00
9009;BME280;62813;51.424;6.762;2023-11-19T03:03:24;100529.63;;;11.11;100.00
9009;BME280;62813;51.424;6.762;2023-11-19T03:05:57;100526.47;;;11.09;100.00
9009;BME280;62813;51.424;6.762;2023-11-19T03:08:24;100547.56;;;11.09;100.00
9009;BME280;62813;51.424;6.762;2023-11-19T03:10:51;100536.22;;;11.08;100.00
9009;BME280;62813;51.424;6.762;2023-11-19T03:13:17;100525.63;;;11.18;100.00
9009;BME280;62813;51.424;6.762;2023-11-19T03:15:44;100520.91;;;11.10;100.00
9009;BME280;62813;51.424;6.762;2023-11-19T03:18:12;100528.81;;;11.15;100.00
9009;BME280;62813;51.424;6.762;2023-11-19T03:20:39;100529.66;;;11.06;100.00
9009;BME280;62813;51.424;6.762;2023-11-19T03:23:06;100529.09;;;11.14;100.00
9009;BME280;62813;51.424;6.762;2023-11-19T03:25:33;100528.03;;;11.10;100.00
9009;BME280;62813;51.424;6.762;2023-11-19T03:28:01;100536.22;;;11.13;100.00
9009;BME280;62813;51.424;6.762;2023-11-19T03:30:29;100538.63;;;11.05;100.00
9009;BME280;62813;51.424;6.762;2023-11-19T03:32:59;100525.97;;;11.02;100.00
9009;BME280;62813;51.424;6.762;2023-11-19T03:35:28;100540.19;;;11.00;100.00
9009;BME280;62813;51.424;6.762;2023-11-19T03:37:55;100532.81;;;10.97;100.00
9009;BME280;62813;51.424;6.762;2023-11-19T03:40:22;100534.41;;;11.04;100.00
9009;BME280;62813;51.424;6.762;2023-11-19T03:42:49;100531.03;;;10.88;100.00
9009;BME280;62813;51.424;6.762;2023-11-19T03:45:16;100543.13;;;10.89;100.00
9009;BME280;62813;51.424;6.762;2023-11-19T03:47:42;100534.44;;;10.88;100.00
9009;BME280;62813;51.424;6.762;2023-11-19T03:50:09;100535.25;;;10.84;100.00
9009;BME280;62813;51.424;6.762;2023-11-19T03:52:36;100545.78;;;10.84;100.00
9009;BME280;62813;51.424;6.762;2023-11-19T03:55:06;100533.91;;;10.81;100.00
9009;BME280;62813;51.424;6.762;2023-11-19T03:57:35;100541.31;;;10.84;100.00
9009;BME280;62813;51.424;6.762;2023-11-19T04:00:02;100544.47;;;10.81;100.00
9009;BME280;62813;51.424;6.762;2023-11-19T04:02:36;100541.56;;;10.83;100.00
9009;BME280;62813;51.424;6.762;2023-11-19T04:05:03;100542.63;;;10.82;100.00
9009;BME280;62813;51.424;6.762;2023-11-19T04:07:31;100547.88;;;10.82;100.00
9009;BME280;62813;51.424;6.762;2023-11-19T04:09:58;100545.53;;;10.85;100.00
9009;BME280;62813;51.424;6.762;2023-11-19T04:12:26;100551.56;;;10.81;100.00
9009;BME280;62813;51.424;6.762;2023-11-19T04:14:52;100547.88;;;10.82;100.00
9009;BME280;62813;51.424;6.762;2023-11-19T04:17:22;100552.09;;;10.83;100.00
9009;BME280;62813;51.424;6.762;2023-11-19T04:19:49;100555.28;;;10.80;100.00
9009;BME280;62813;51.424;6.762;2023-11-19T04:22:16;100555.53;;;10.83;100.00
9009;BME280;62813;51.424;6.762;2023-11-19T04:24:43;100543.66;;;10.81;100.00
9009;BME280;62813;51.424;6.762;2023-11-19T04:27:12;100549.47;;;10.83;100.00
9009;BME280;62813;51.424;6.762;2023-11-19T04:29:40;100541.56;;;10.88;100.00
9009;BME280;62813;51.424;6.762;2023-11-19T04:32:06;100551.59;;;10.86;100.00
9009;BME280;62813;51.424;6.762;2023-11-19T04:34:34;100556.84;;;10.86;100.00
9009;BME280;62813;51.424;6.762;2023-11-19T04:37:01;100565.28;;;10.88;100.00
9009;BME280;62813;51.424;6.762;2023-11-19T04:39:39;100561.06;;;10.87;100.00
9009;BME280;62813;51.424;6.762;2023-11-19T04:42:06;100553.94;;;10.92;100.00
9009;BME280;62813;51.424;6.762;2023-11-19T04:44:33;100555.53;;;10.88;100.00
9009;BME280;62813;51.424;6.762;2023-11-19T04:47:00;100557.38;;;10.88;100.00
9009;BME280;62813;51.424;6.762;2023-11-19T04:49:27;100556.59;;;10.82;100.00
9009;BME280;62813;51.424;6.762;2023-11-19T04:51:54;100566.34;;;10.82;100.00
9009;BME280;62813;51.424;6.762;2023-11-19T04:54:21;100561.84;;;10.82;100.00
9009;BME280;62813;51.424;6.762;2023-11-19T04:56:48;100568.75;;;10.78;100.00
9009;BME280;62813;51.424;6.762;2023-11-19T04:59:15;100581.38;;;10.76;100.00
9009;BME280;62813;51.424;6.762;2023-11-19T05:01:46;100575.84;;;10.78;100.00
9009;BME280;62813;51.424;6.762;2023-11-19T05:04:14;100579.81;;;10.75;100.00
9009;BME280;62813;51.424;6.762;2023-11-19T05:06:41;100571.63;;;10.82;100.00
9009;BME280;62813;51.424;6.762;2023-11-19T05:09:08;100574.25;;;10.87;100.00
9009;BME280;62813;51.424;6.762;2023-11-19T05:11:35;100557.94;;;10.80;100.00
9009;BME280;62813;51.424;6.762;2023-11-19T05:14:16;100568.22;;;10.76;100.00
9009;BME280;62813;51.424;6.762;2023-11-19T05:16:43;100563.19;;;10.80;100.00
9009;BME280;62813;51.424;6.762;2023-11-19T05:19:09;100559.22;;;10.82;100.00
9009;BME280;62813;51.424;6.762;2023-11-19T05:21:36;100570.56;;;10.78;100.00
9009;BME280;62813;51.424;6.762;2023-11-19T05:24:03;100573.22;;;10.78;100.00
9009;BME280;62813;51.424;6.762;2023-11-19T05:26:33;100575.84;;;10.78;100.00
9009;BME280;62813;51.424;6.762;2023-11-19T05:28:59;100570.81;;;10.81;100.00
9009;BME280;62813;51.424;6.762;2023-11-19T05:31:26;100584.53;;;10.83;100.00
9009;BME280;62813;51.424;6.762;2023-11-19T05:33:53;100581.09;;;10.83;100.00
9009;BME280;62813;51.424;6.762;2023-11-19T05:36:20;100587.69;;;10.80;100.00
9009;BME280;62813;51.424;6.762;2023-11-19T05:38:47;100600.06;;;10.90;100.00
9009;BME280;62813;51.424;6.762;2023-11-19T05:41:13;100585.31;;;10.84;100.00
9009;BME280;62813;51.424;6.762;2023-11-19T05:43:40;100584.00;;;10.86;100.00
9009;BME280;62813;51.424;6.762;2023-11-19T05:46:07;100586.09;;;10.89;100.00
9009;BME280;62813;51.424;6.762;2023-11-19T05:48:38;100588.72;;;10.89;100.00
9009;BME280;62813;51.424;6.762;2023-11-19T05:51:05;100587.94;;;10.89;100.00
9009;BME280;62813;51.424;6.762;2023-11-19T05:53:35;100592.97;;;10.80;100.00
9009;BME280;62813;51.424;6.762;2023-11-19T05:56:01;100592.19;;;10.80;100.00
9009;BME280;62813;51.424;6.762;2023-11-19T05:58:30;100583.50;;;10.79;100.00
9009;BME280;62813;51.424;6.762;2023-11-19T06:00:57;100582.69;;;10.74;100.00
9009;BME280;62813;51.424;6.762;2023-11-19T06:03:26;100582.19;;;10.77;100.00
9009;BME280;62813;51.424;6.762;2023-11-19T06:05:53;100585.59;;;10.72;100.00
9009;BME280;62813;51.424;6.762;2023-11-19T06:08:23;100583.50;;;10.74;100.00
9009;BME280;62813;51.424;6.762;2023-11-19T06:10:50;100578.78;;;10.71;100.00
9009;BME280;62813;51.424;6.762;2023-11-19T06:13:17;100589.81;;;10.68;100.00
9009;BME280;62813;51.424;6.762;2023-11-19T06:15:46;100581.41;;;10.71;100.00
9009;BME280;62813;51.424;6.762;2023-11-19T06:18:12;100591.41;;;10.69;100.00
9009;BME280;62813;51.424;6.762;2023-11-19T06:20:41;100598.28;;;10.70;100.00
9009;BME280;62813;51.424;6.762;2023-11-19T06:23:09;100591.16;;;10.71;100.00
9009;BME280;62813;51.424;6.762;2023-11-19T06:25:36;100586.91;;;10.65;100.00
9009;BME280;62813;51.424;6.762;2023-11-19T06:28:03;100578.50;;;10.63;99.96
9009;BME280;62813;51.424;6.762;2023-11-19T06:30:31;100571.66;;;10.56;100.00
9009;BME280;62813;51.424;6.762;2023-11-19T06:32:59;100574.03;;;10.53;99.56
9009;BME280;62813;51.424;6.762;2023-11-19T06:35:26;100576.94;;;10.61;98.45
9009;BME280;62813;51.424;6.762;2023-11-19T06:37:55;100579.03;;;10.59;97.73
9009;BME280;62813;51.424;6.762;2023-11-19T06:40:22;100588.50;;;10.55;98.04
9009;BME280;62813;51.424;6.762;2023-11-19T06:42:49;100592.72;;;10.56;97.36
9009;BME280;62813;51.424;6.762;2023-11-19T06:45:15;100599.03;;;10.55;96.70
9009;BME280;62813;51.424;6.762;2023-11-19T06:47:42;100593.50;;;10.57;96.57
9009;BME280;62813;51.424;6.762;2023-11-19T06:50:09;100599.84;;;10.56;96.54
9009;BME280;62813;51.424;6.762;2023-11-19T06:52:36;100606.94;;;10.55;96.69
9009;BME280;62813;51.424;6.762;2023-11-19T06:55:04;100600.38;;;10.53;96.51
9009;BME280;62813;51.424;6.762;2023-11-19T06:57:34;100607.22;;;10.49;96.36
9009;BME280;62813;51.424;6.762;2023-11-19T07:00:02;100598.25;;;10.40;97.07
9009;BME280;62813;51.424;6.762;2023-11-19T07:02:29;100595.63;;;10.40;97.27
9009;BME280;62813;51.424;6.762;2023-11-19T07:04:56;100595.38;;;10.36;97.66
9009;BME280;62813;51.424;6.762;2023-11-19T07:07:23;100592.19;;;10.39;97.09
9009;BME280;62813;51.424;6.762;2023-11-19T07:09:49;100596.16;;;10.42;96.47
9009;BME280;62813;51.424;6.762;2023-11-19T07:12:17;100606.16;;;10.55;94.60
9009;BME280;62813;51.424;6.762;2023-11-19T07:14:43;100596.16;;;10.52;95.24
9009;BME280;62813;51.424;6.762;2023-11-19T07:17:10;100611.16;;;10.56;94.54
9009;BME280;62813;51.424;6.762;2023-11-19T07:19:37;100610.09;;;10.47;95.17
9009;BME280;62813;51.424;6.762;2023-11-19T07:22:05;100627.75;;;10.42;95.62
9009;BME280;62813;51.424;6.762;2023-11-19T07:24:33;100620.91;;;10.36;95.99
9009;BME280;62813;51.424;6.762;2023-11-19T07:27:00;100616.19;;;10.38;95.86
9009;BME280;62813;51.424;6.762;2023-11-19T07:29:27;100632.75;;;10.33;96.40
9009;BME280;62813;51.424;6.762;2023-11-19T07:31:55;100644.88;;;10.34;95.59
9009;BME280;62813;51.424;6.762;2023-11-19T07:34:24;100648.06;;;10.41;94.88
9009;BME280;62813;51.424;6.762;2023-11-19T07:36:51;100653.31;;;10.36;95.00
9009;BME280;62813;51.424;6.762;2023-11-19T07:39:19;100658.34;;;10.38;94.95
9009;BME280;62813;51.424;6.762;2023-11-19T07:41:47;100653.56;;;10.35;95.35
9009;BME280;62813;51.424;6.762;2023-11-19T07:44:14;100657.25;;;10.34;94.93
9009;BME280;62813;51.424;6.762;2023-11-19T07:46:41;100669.38;;;10.35;95.26
9009;BME280;62813;51.424;6.762;2023-11-19T07:49:09;100671.72;;;10.31;95.63
9009;BME280;62813;51.424;6.762;2023-11-19T07:51:36;100671.22;;;10.34;95.14
9009;BME280;62813;51.424;6.762;2023-11-19T07:54:03;100679.13;;;10.39;93.96
9009;BME280;62813;51.424;6.762;2023-11-19T07:56:32;100688.06;;;10.38;94.57
9009;BME280;62813;51.424;6.762;2023-11-19T07:59:03;100682.81;;;10.38;95.40
9009;BME280;62813;51.424;6.762;2023-11-19T08:01:30;100695.22;;;10.38;95.21
9009;BME280;62813;51.424;6.762;2023-11-19T08:03:57;100688.34;;;10.37;94.95
9009;BME280;62813;51.424;6.762;2023-11-19T08:06:25;100691.78;;;10.42;94.43
9009;BME280;62813;51.424;6.762;2023-11-19T08:08:52;100698.91;;;10.42;94.57
9009;BME280;62813;51.424;6.762;2023-11-19T08:11:19;100700.47;;;10.48;94.25
9009;BME280;62813;51.424;6.762;2023-11-19T08:13:46;100701.81;;;10.50;93.83
9009;BME280;62813;51.424;6.762;2023-11-19T08:16:14;100698.13;;;10.51;94.01
9009;BME280;62813;51.424;6.762;2023-11-19T08:18:42;100709.47;;;10.52;94.16
9009;BME280;62813;51.424;6.762;2023-11-19T08:21:10;100707.88;;;10.51;94.33
9009;BME280;62813;51.424;6.762;2023-11-19T08:23:37;100725.00;;;10.53;93.62
9009;BME280;62813;51.424;6.762;2023-11-19T08:26:05;100714.22;;;10.60;93.84
9009;BME280;62813;51.424;6.762;2023-11-19T08:28:32;100711.56;;;10.60;93.72
9009;BME280;62813;51.424;6.762;2023-11-19T08:31:02;100708.69;;;10.61;93.57
9009;BME280;62813;51.424;6.762;2023-11-19T08:33:31;100700.78;;;10.61;94.19
9009;BME280;62813;51.424;6.762;2023-11-19T08:35:58;100701.03;;;10.60;94.21
9009;BME280;62813;51.424;6.762;2023-11-19T08:38:25;100706.56;;;10.69;93.56
9009;BME280;62813;51.424;6.762;2023-11-19T08:40:55;100708.94;;;10.75;93.02
9009;BME280;62813;51.424;6.762;2023-11-19T08:43:27;100703.97;;;10.79;92.78
9009;BME280;62813;51.424;6.762;2023-11-19T08:45:56;100711.31;;;10.82;92.48
9009;BME280;62813;51.424;6.762;2023-11-19T08:48:22;100707.09;;;10.81;93.23
9009;BME280;62813;51.424;6.762;2023-11-19T08:50:49;100702.91;;;10.95;91.57
9009;BME280;62813;51.424;6.762;2023-11-19T08:53:16;100704.19;;;11.08;92.05
9009;BME280;62813;51.424;6.762;2023-11-19T08:55:43;100704.72;;;11.10;91.39
9009;BME280;62813;51.424;6.762;2023-11-19T08:58:09;100722.66;;;11.08;91.13
9009;BME280;62813;51.424;6.762;2023-11-19T09:00:36;100716.06;;;11.15;91.67
9009;BME280;62813;51.424;6.762;2023-11-19T09:03:03;100725.03;;;11.19;90.98
9009;BME280;62813;51.424;6.762;2023-11-19T09:05:30;100721.88;;;11.22;90.71
9009;BME280;62813;51.424;6.762;2023-11-19T09:07:57;100726.63;;;11.30;90.41
9009;BME280;62813;51.424;6.762;2023-11-19T09:10:24;100720.78;;;11.33;90.09
9009;BME280;62813;51.424;6.762;2023-11-19T09:12:50;100724.22;;;11.34;89.64
9009;BME280;62813;51.424;6.762;2023-11-19T09:15:17;100719.22;;;11.37;89.26
9009;BME280;62813;51.424;6.762;2023-11-19T09:17:44;100721.31;;;11.35;89.76
9009;BME280;62813;51.424;6.762;2023-11-19T09:20:12;100713.13;;;11.32;90.17
9009;BME280;62813;51.424;6.762;2023-11-19T09:22:42;100717.63;;;11.36;89.36
9009;BME280;62813;51.424;6.762;2023-11-19T09:25:09;100711.28;;;11.48;89.06
9009;BME280;62813;51.424;6.762;2023-11-19T09:27:36;100713.63;;;11.54;88.76
9009;BME280;62813;51.424;6.762;2023-11-19T09:30:03;100703.84;;;11.60;88.03
9009;BME280;62813;51.424;6.762;2023-11-19T09:32:30;100702.28;;;11.54;88.50
9009;BME280;62813;51.424;6.762;2023-11-19T09:34:57;100708.13;;;11.46;88.91
9009;BME280;62813;51.424;6.762;2023-11-19T09:37:25;100712.56;;;11.50;88.22
9009;BME280;62813;51.424;6.762;2023-11-19T09:39:51;100708.09;;;11.51;87.88
9009;BME280;62813;51.424;6.762;2023-11-19T09:42:20;100720.50;;;11.55;87.28
9009;BME280;62813;51.424;6.762;2023-11-19T09:44:47;100702.78;;;11.66;86.78
9009;BME280;62813;51.424;6.762;2023-11-19T09:47:16;100702.50;;;11.67;87.23
9009;BME280;62813;51.424;6.762;2023-11-19T09:49:43;100718.09;;;11.69;86.10
9009;BME280;62813;51.424;6.762;2023-11-19T09:52:10;100714.38;;;11.70;86.56
9009;BME280;62813;51.424;6.762;2023-11-19T09:54:37;100717.81;;;11.65;87.13
9009;BME280;62813;51.424;6.762;2023-11-19T09:57:05;100718.59;;;11.66;86.60
9009;BME280;62813;51.424;6.762;2023-11-19T09:59:34;100718.09;;;11.69;86.86
9009;BME280;62813;51.424;6.762;2023-11-19T10:02:02;100705.94;;;11.68;86.56
9009;BME280;62813;51.424;6.762;2023-11-19T10:04:32;100710.44;;;11.67;86.26
9009;BME280;62813;51.424;6.762;2023-11-19T10:07:01;100698.53;;;11.70;86.00
9009;BME280;62813;51.424;6.762;2023-11-19T10:09:28;100705.94;;;11.68;85.84
9009;BME280;62813;51.424;6.762;2023-11-19T10:11:54;100708.03;;;11.66;85.31
9009;BME280;62813;51.424;6.762;2023-11-19T10:14:23;100705.97;;;11.63;85.97
9009;BME280;62813;51.424;6.762;2023-11-19T10:16:50;100707.53;;;11.64;85.00
9009;BME280;62813;51.424;6.762;2023-11-19T10:19:21;100700.91;;;11.66;84.77
9009;BME280;62813;51.424;6.762;2023-11-19T10:21:48;100700.91;;;11.77;84.75
9009;BME280;62813;51.424;6.762;2023-11-19T10:24:15;100702.50;;;11.78;83.86
9009;BME280;62813;51.424;6.762;2023-11-19T10:26:45;100703.28;;;11.78;83.81
9009;BME280;62813;51.424;6.762;2023-11-19T10:29:13;100706.16;;;11.87;83.45
9009;BME280;62813;51.424;6.762;2023-11-19T10:31:40;100701.44;;;11.79;83.71
9009;BME280;62813;51.424;6.762;2023-11-19T10:34:24;100704.59;;;11.91;83.32
9009;BME280;62813;51.424;6.762;2023-11-19T10:36:51;100701.94;;;11.91;82.78
9009;BME280;62813;51.424;6.762;2023-11-19T10:39:18;100694.75;;;12.01;82.00
9009;BME280;62813;51.424;6.762;2023-11-19T10:41:45;100693.69;;;12.02;81.77
9009;BME280;62813;51.424;6.762;2023-11-19T10:44:12;100686.25;;;12.09;81.44
9009;BME280;62813;51.424;6.762;2023-11-19T10:46:40;100696.56;;;12.11;81.07
9009;BME280;62813;51.424;6.762;2023-11-19T10:49:07;100685.66;;;12.23;80.51
9009;BME280;62813;51.424;6.762;2023-11-19T10:51:35;100682.47;;;12.26;80.98
9009;BME280;62813;51.424;6.762;2023-11-19T10:54:03;100689.31;;;12.32;80.41
9009;BME280;62813;51.424;6.762;2023-11-19T10:56:33;100692.75;;;12.32;80.52
9009;BME280;62813;51.424;6.762;2023-11-19T10:59:00;100689.28;;;12.37;79.67
9009;BME280;62813;51.424;6.762;2023-11-19T11:01:33;100691.41;;;12.35;79.39
9009;BME280;62813;51.424;6.762;2023-11-19T11:04:02;100683.44;;;12.40;79.44
9009;BME280;62813;51.424;6.762;2023-11-19T11:06:29;100669.19;;;12.41;78.21
9009;BME280;62813;51.424;6.762;2023-11-19T11:08:57;100683.41;;;12.50;77.53
9009;BME280;62813;51.424;6.762;2023-11-19T11:11:24;100676.47;;;12.54;78.06
9009;BME280;62813;51.424;6.762;2023-11-19T11:13:54;100688.38;;;12.51;77.75
9009;BME280;62813;51.424;6.762;2023-11-19T11:16:23;100686.19;;;12.64;77.31
9009;BME280;62813;51.424;6.762;2023-11-19T11:18:52;100672.53;;;12.51;77.46
9009;BME280;62813;51.424;6.762;2023-11-19T11:21:22;100682.03;;;12.52;77.38
9009;BME280;62813;51.424;6.762;2023-11-19T11:37:49;100667.41;;;12.65;76.24
9009;BME280;62813;51.424;6.762;2023-11-19T11:40:17;100662.41;;;12.64;75.54
9009;BME280;62813;51.424;6.762;2023-11-19T11:42:50;100658.72;;;12.60;76.27
9009;BME280;62813;51.424;6.762;2023-11-19T11:45:18;100663.22;;;12.59;76.11
9009;BME280;62813;51.424;6.762;2023-11-19T11:48:21;100646.38;;;12.50;75.88
9009;BME280;62813;51.424;6.762;2023-11-19T11:50:51;100647.78;;;12.37;76.49
9009;BME280;62813;51.424;6.762;2023-11-19T11:53:22;100654.06;;;12.46;75.57
9009;BME280;62813;51.424;6.762;2023-11-19T11:58:22;100632.59;;;12.53;74.97
9009;BME280;62813;51.424;6.762;2023-11-19T12:00:52;100643.16;;;12.58;nan
9009;BME280;62813;51.424;6.762;2023-11-19T12:03:22;100652.94;;;12.58;74.52
9009;BME280;62813;51.424;6.762;2023-11-19T12:05:49;100642.38;;;12.58;74.22
9009;BME280;62813;51.424;6.762;2023-11-19T12:08:26;100638.06;;;12.67;73.53
9009;BME280;62813;51.424;6.762;2023-11-19T12:10:55;100629.81;;;12.73;73.61
9009;BME280;62813;51.424;6.762;2023-11-19T12:13:44;100634.75;;;12.80;73.94
9009;BME280;62813;51.424;6.762;2023-11-19T12:16:12;100634.06;;;12.69;74.25
9009;BME280;62813;51.424;6.762;2023-11-19T12:18:40;100641.19;;;12.69;74.14
9009;BME280;62813;51.424;6.762;2023-11-19T12:21:08;100616.59;;;12.73;73.92
9009;BME280;62813;51.424;6.762;2023-11-19T12:23:44;100621.78;;;12.83;73.74
9009;BME280;62813;51.424;6.762;2023-11-19T12:26:21;100616.78;;;12.77;74.15
9009;BME280;62813;51.424;6.762;2023-11-19T12:29:00;100609.16;;;12.75;74.10
9009;BME280;62813;51.424;6.762;2023-11-19T12:31:30;100612.63;;;12.71;74.43
9009;BME280;62813;51.424;6.762;2023-11-19T12:33:57;100613.22;;;12.63;75.40
9009;BME280;62813;51.424;6.762;2023-11-19T12:36:24;100603.34;;;12.44;78.11
9009;BME280;62813;51.424;6.762;2023-11-19T12:38:51;100630.81;;;12.43;78.98
9009;BME280;62813;51.424;6.762;2023-11-19T12:41:18;100608.69;;;12.34;78.92
9009;BME280;62813;51.424;6.762;2023-11-19T12:43:49;100596.38;;;12.25;79.34
9009;BME280;62813;51.424;6.762;2023-11-19T12:46:21;100614.34;;;12.23;79.27
9009;BME280;62813;51.424;6.762;2023-11-19T12:48:49;100614.06;;;12.24;78.61
9009;BME280;62813;51.424;6.762;2023-11-19T12:51:16;100621.19;;;12.24;77.76
9009;BME280;62813;51.424;6.762;2023-11-19T12:53:50;100612.53;;;12.13;78.21
9009;BME280;62813;51.424;6.762;2023-11-19T12:56:21;100619.44;;;12.09;77.55
9009;BME280;62813;51.424;6.762;2023-11-19T12:58:48;100626.53;;;12.13;77.96
9009;BME280;62813;51.424;6.762;2023-11-19T13:01:19;100635.00;;;12.10;77.95
9009;BME280;62813;51.424;6.762;2023-11-19T13:03:47;100644.00;;;12.09;78.84
9009;BME280;62813;51.424;6.762;2023-11-19T13:06:16;100626.81;;;12.12;78.69
9009;BME280;62813;51.424;6.762;2023-11-19T13:08:44;100630.50;;;12.11;78.64
9009;BME280;62813;51.424;6.762;2023-11-19T13:11:12;100627.56;;;12.18;78.94
9009;BME280;62813;51.424;6.762;2023-11-19T13:14:00;100630.19;;;12.18;79.50
9009;BME280;62813;51.424;6.762;2023-11-19T13:16:27;100626.34;;;12.05;80.25
9009;BME280;62813;51.424;6.762;2023-11-19T13:18:55;100629.78;;;12.00;80.60